Time;durP1;ratioP1;P1;durP2;ratioP2;P2;SDS_P1;SDS_P2;PMS_P1;PMS_P2;Temp;Humidity;BMP_temperature;BMP_pressure;BME280_temperature;BME280_humidity;BME280_pressure;Samples;Min_cycle;Max_cycle;Signal;HPM_P1;HPM_P2
2022/10/21 00:02:26;;;;;;;12.63;3.35;;;;;;;-145.69;100.00;52472.13;5035400;28;20228;-83
2022/10/21 00:04:56;;;;;;;19.88;3.60;;;;;;;-145.69;100.00;52468.16;5035109;28;20196;-83
2022/10/21 00:07:23;;;;;;;16.08;3.72;;;;;;;-145.69;100.00;52495.88;5035360;28;20232;-83
2022/10/21 00:09:51;;;;;;;7.05;3.20;;;;;;;-145.69;100.00;52497.84;5039747;28;20198;-83
2022/10/21 00:12:18;;;;;;;10.07;3.63;;;;;;;-145.69;100.00;52466.16;5055195;28;20207;-83
2022/10/21 00:14:47;;;;;;;10.48;3.38;;;;;;;-145.69;100.00;52474.09;5049526;28;20219;-83
2022/10/21 00:17:15;;;;;;;12.05;3.58;;;;;;;-145.69;100.00;52491.91;5038740;28;20199;-84
2022/10/21 00:19:41;;;;;;;7.60;2.97;;;;;;;-145.69;100.00;52474.09;5038458;28;20243;-82
2022/10/21 00:22:10;;;;;;;13.25;3.25;;;;;;;-145.69;100.00;52466.16;5034984;28;20207;-82
2022/10/21 00:24:40;;;;;;;14.27;3.50;;;;;;;-145.69;100.00;52484.00;5035104;28;20211;-82
2022/10/21 00:27:06;;;;;;;13.38;3.55;;;;;;;-145.69;100.00;52484.00;5034655;28;20211;-83
2022/10/21 00:29:33;;;;;;;8.95;2.60;;;;;;;-145.69;100.00;52470.13;5034751;28;20226;-82
2022/10/21 00:32:02;;;;;;;11.45;3.60;;;;;;;-145.69;100.00;52434.47;5033673;28;20203;-81
2022/10/21 00:34:31;;;;;;;16.33;3.15;;;;;;;-145.69;100.00;52503.81;5034364;28;20212;-82
2022/10/21 00:36:58;;;;;;;12.80;3.33;;;;;;;-145.69;100.00;52484.00;5034946;28;20210;-83
2022/10/21 00:39:24;;;;;;;12.82;2.85;;;;;;;-145.69;100.00;52458.25;5053188;28;20225;-83
2022/10/21 00:41:51;;;;;;;13.48;2.80;;;;;;;-145.69;100.00;52474.09;5054375;28;20543;-82
2022/10/21 00:44:17;;;;;;;13.15;2.80;;;;;;;-145.69;100.00;52466.16;5048108;28;20731;-82
2022/10/21 00:46:47;;;;;;;9.40;3.03;;;;;;;-145.69;100.00;52464.19;5034316;28;20283;-83
2022/10/21 00:49:19;;;;;;;9.75;2.90;;;;;;;-145.69;100.00;52482.00;5033648;28;20196;-83
2022/10/21 00:51:49;;;;;;;10.27;2.72;;;;;;;-145.69;100.00;52493.91;5041058;28;20219;-83
2022/10/21 00:54:18;;;;;;;15.93;3.00;;;;;;;-145.69;100.00;52462.22;5040166;28;20198;-83
2022/10/21 00:56:46;;;;;;;18.77;2.40;;;;;;;-145.69;100.00;52468.16;5054024;28;20286;-80
2022/10/21 00:59:15;;;;;;;18.02;3.03;;;;;;;-145.69;100.00;52489.94;5053558;28;20231;-83
2022/10/21 01:01:42;;;;;;;10.68;3.00;;;;;;;-145.69;100.00;52487.97;5053871;28;20664;-83
2022/10/21 01:04:08;;;;;;;21.20;3.20;;;;;;;-145.69;100.00;52525.59;5053917;28;20199;-83
2022/10/21 01:06:36;;;;;;;11.25;3.45;;;;;;;-145.69;100.00;52503.81;5054105;28;20561;-83
2022/10/21 01:09:05;;;;;;;17.92;3.58;;;;;;;-145.69;100.00;52484.00;5053938;28;20203;-83
2022/10/21 01:11:42;;;;;;;11.35;3.40;;;;;;;-145.69;100.00;52497.84;5053837;28;20551;-84
2022/10/21 01:14:41;;;;;;;12.23;3.35;;;;;;;-145.69;100.00;52485.97;5054078;28;20195;-83
2022/10/21 01:17:16;;;;;;;20.20;3.65;;;;;;;-145.69;100.00;52464.19;5053819;28;20268;-82
2022/10/21 01:20:19;;;;;;;15.40;2.50;;;;;;;-145.69;100.00;52480.03;5053567;28;20257;-82
2022/10/21 01:23:19;;;;;;;14.88;2.67;;;;;;;-145.69;100.00;52491.91;5020436;28;20665;-81
2022/10/21 01:26:07;;;;;;;12.18;3.20;;;;;;;-145.69;100.00;52450.31;5049176;28;20570;-83
2022/10/21 01:28:51;;;;;;;9.30;2.53;;;;;;;-145.69;100.00;52482.00;5040331;28;20559;-82
2022/10/21 01:31:24;;;;;;;16.27;3.25;;;;;;;-145.69;100.00;52482.00;5053713;28;20207;-82
2022/10/21 01:33:59;;;;;;;11.73;2.53;;;;;;;-145.69;100.00;52487.97;5053239;28;20204;-82
2022/10/21 01:36:34;;;;;;;12.07;2.70;;;;;;;-145.69;100.00;52464.19;5044396;28;20643;-83
2022/10/21 01:39:18;;;;;;;22.10;4.00;;;;;;;-145.69;100.00;52499.84;5053282;28;20198;-82
2022/10/21 01:41:51;;;;;;;21.30;3.70;;;;;;;-145.69;100.00;52470.13;5053512;28;20290;-82
2022/10/21 01:44:25;;;;;;;17.65;3.20;;;;;;;-145.69;100.00;52495.88;5053108;28;20543;-82
2022/10/21 01:46:57;;;;;;;15.57;3.17;;;;;;;-145.69;100.00;52464.19;5053261;28;20204;-81
2022/10/21 01:49:29;;;;;;;16.88;3.25;;;;;;;-145.69;100.00;52476.06;5053066;28;20680;-81
2022/10/21 01:51:57;;;;;;;16.65;3.35;;;;;;;-145.69;100.00;52485.97;5040100;28;20579;-82
2022/10/21 01:54:28;;;;;;;14.10;2.95;;;;;;;-145.69;100.00;52468.16;5039738;28;20192;-82
2022/10/21 01:56:57;;;;;;;14.70;3.05;;;;;;;-145.69;100.00;52485.97;5052901;28;20211;-81
2022/10/21 01:59:26;;;;;;;18.77;3.40;;;;;;;-145.69;100.00;52499.84;5033152;28;20291;-83
2022/10/21 02:02:00;;;;;;;18.88;3.33;;;;;;;-145.69;100.00;52487.97;5033186;28;20253;-82
2022/10/21 02:04:30;;;;;;;9.32;3.10;;;;;;;-145.69;100.00;52472.13;5032092;28;20200;-82
2022/10/21 02:06:56;;;;;;;13.75;3.53;;;;;;;-145.69;100.00;52491.91;5033215;28;20204;-83
2022/10/21 02:09:26;;;;;;;13.80;3.00;;;;;;;-145.69;100.00;52487.97;5033017;28;20206;-83
2022/10/21 02:11:58;;;;;;;16.27;3.15;;;;;;;-145.69;100.00;52499.84;5036759;28;20228;-82
2022/10/21 02:14:29;;;;;;;18.52;3.78;;;;;;;-145.69;100.00;52480.03;5053042;28;20681;-82
2022/10/21 02:16:59;;;;;;;14.77;3.55;;;;;;;-145.69;100.00;52484.00;5053065;28;20199;-81
2022/10/21 02:19:27;;;;;;;12.18;3.22;;;;;;;-145.69;100.00;52487.97;5050589;28;20225;-82
2022/10/21 02:21:59;;;;;;;13.82;4.35;;;;;;;-145.69;100.00;52503.81;5052828;28;20542;-83
2022/10/21 02:24:30;;;;;;;16.05;4.38;;;;;;;-145.69;100.00;52497.84;5051803;28;20440;-83
2022/10/21 02:26:57;;;;;;;12.05;3.67;;;;;;;-145.69;100.00;52478.06;5052703;28;20662;-81
2022/10/21 02:29:33;;;;;;;19.60;4.20;;;;;;;-145.69;100.00;52476.06;5042988;28;20199;-82
2022/10/21 02:32:14;;;;;;;14.73;3.70;;;;;;;-145.69;100.00;52509.75;5032768;28;20200;-82
2022/10/21 02:34:51;;;;;;;9.40;2.83;;;;;;;-145.69;100.00;52499.84;5032641;28;20207;-82
2022/10/21 02:37:29;;;;;;;11.45;3.97;;;;;;;-145.69;100.00;52505.78;5033697;28;20290;-81
2022/10/21 02:40:02;;;;;;;14.93;4.00;;;;;;;-145.69;100.00;52519.63;5032486;28;20231;-82
2022/10/21 02:42:44;;;;;;;16.40;3.78;;;;;;;-145.69;100.00;52503.81;5032611;28;20299;-82
2022/10/21 02:45:11;;;;;;;13.45;3.08;;;;;;;-145.69;100.00;52484.00;5032985;28;20210;-81
2022/10/21 02:47:43;;;;;;;16.77;3.65;;;;;;;-145.69;100.00;52495.88;5050012;28;20728;-82
2022/10/21 02:50:11;;;;;;;13.23;2.97;;;;;;;-145.69;100.00;52519.63;5052647;28;20214;-81
2022/10/21 02:52:38;;;;;;;15.52;3.00;;;;;;;-145.69;100.00;52509.75;5052470;28;20211;-81
2022/10/21 02:55:05;;;;;;;14.65;3.63;;;;;;;-145.69;100.00;52458.25;5052479;28;20543;-82
2022/10/21 02:57:32;;;;;;;15.80;3.13;;;;;;;-145.69;100.00;52495.88;5056082;28;20666;-81
2022/10/21 02:59:59;;;;;;;15.45;3.40;;;;;;;-145.69;100.00;52487.97;5056064;28;20223;-81
2022/10/21 03:02:26;;;;;;;24.00;4.50;;;;;;;-145.69;100.00;52487.97;5056465;28;20448;-82
2022/10/21 03:04:56;;;;;;;18.02;4.40;;;;;;;-145.69;100.00;52497.84;5056438;28;20195;-82
2022/10/21 03:07:23;;;;;;;16.20;3.10;;;;;;;-145.69;100.00;52507.75;5040790;28;20216;-82
2022/10/21 03:09:52;;;;;;;19.40;3.75;;;;;;;-145.69;100.00;52511.72;5036336;28;20207;-81
2022/10/21 03:12:24;;;;;;;19.00;3.33;;;;;;;-145.69;100.00;52487.97;5036289;28;20200;-82
2022/10/21 03:14:51;;;;;;;18.55;3.58;;;;;;;-145.69;100.00;52493.91;5039067;28;20196;-82
2022/10/21 03:17:17;;;;;;;18.02;3.55;;;;;;;-145.69;100.00;52501.81;5036338;28;20200;-82
2022/10/21 03:19:47;;;;;;;13.40;3.38;;;;;;;-145.69;100.00;52519.63;5035896;28;20310;-82
2022/10/21 03:22:16;;;;;;;11.48;3.55;;;;;;;-145.69;100.00;52507.75;5035673;28;20746;-82
2022/10/21 03:24:44;;;;;;;16.08;4.13;;;;;;;-145.69;100.00;52499.84;5036023;28;20646;-82
2022/10/21 03:27:10;;;;;;;17.95;4.03;;;;;;;-145.69;100.00;52485.97;5035635;28;20207;-81
2022/10/21 03:29:39;;;;;;;13.25;3.58;;;;;;;-145.69;100.00;52539.44;5035959;28;20207;-83
2022/10/21 03:32:09;;;;;;;23.48;4.15;;;;;;;-145.69;100.00;52495.88;5035780;28;20247;-82
2022/10/21 03:34:37;;;;;;;17.17;3.90;;;;;;;-145.69;100.00;52495.88;5035709;28;20207;-81
2022/10/21 03:37:07;;;;;;;19.98;3.95;;;;;;;-145.69;100.00;52511.72;5035520;28;20207;-81
2022/10/21 03:39:37;;;;;;;16.73;3.78;;;;;;;-145.69;100.00;52507.75;5034833;28;20207;-82
2022/10/21 03:42:04;;;;;;;16.35;3.92;;;;;;;-145.69;100.00;52499.84;5035535;28;20236;-82
2022/10/21 03:44:30;;;;;;;20.52;3.63;;;;;;;-145.69;100.00;52480.03;5035728;28;20207;-82
2022/10/21 03:46:59;;;;;;;21.77;3.55;;;;;;;-145.69;100.00;52523.59;5035654;28;20208;-83
2022/10/21 03:49:29;;;;;;;23.00;4.20;;;;;;;-145.69;100.00;52515.69;5035577;28;20227;-82
2022/10/21 03:51:55;;;;;;;15.40;3.92;;;;;;;-145.69;100.00;52503.81;5035379;28;20292;-82
2022/10/21 03:54:22;;;;;;;15.82;4.10;;;;;;;-145.69;100.00;52507.75;5035184;28;20208;-82
2022/10/21 03:56:50;;;;;;;14.48;3.30;;;;;;;-145.69;100.00;52503.81;5035206;28;20207;-82
2022/10/21 03:59:18;;;;;;;17.40;3.55;;;;;;;-145.69;100.00;52513.69;5035277;28;20204;-82
2022/10/21 04:01:45;;;;;;;16.83;3.80;;;;;;;-145.69;100.00;52507.75;5035208;28;20323;-82
2022/10/21 04:04:11;;;;;;;14.43;3.90;;;;;;;-145.69;100.00;52493.91;5035162;28;20200;-82
2022/10/21 04:06:38;;;;;;;15.35;3.63;;;;;;;-145.69;100.00;52523.59;5034866;28;20650;-82
2022/10/21 04:09:04;;;;;;;11.38;3.20;;;;;;;-145.69;100.00;52480.03;5034278;28;20198;-82
2022/10/21 04:11:31;;;;;;;8.65;2.65;;;;;;;-145.69;100.00;52503.81;5034907;28;20259;-82
2022/10/21 04:13:59;;;;;;;19.20;3.50;;;;;;;-145.69;100.00;52497.84;5034848;28;20662;-82
2022/10/21 04:16:25;;;;;;;15.60;3.05;;;;;;;-145.69;100.00;52480.03;5035074;28;20200;-82
2022/10/21 04:18:52;;;;;;;13.40;3.60;;;;;;;-145.69;100.00;52501.81;5034716;28;20310;-82
2022/10/21 04:21:18;;;;;;;9.85;2.97;;;;;;;-145.69;100.00;52497.84;5034131;28;20509;-82
2022/10/21 04:23:45;;;;;;;12.88;3.83;;;;;;;-145.69;100.00;52503.81;5034834;28;20199;-82
2022/10/21 04:26:12;;;;;;;10.57;3.60;;;;;;;-145.69;100.00;52476.06;5034680;28;20279;-82
2022/10/21 04:28:38;;;;;;;12.52;2.95;;;;;;;-145.69;100.00;52493.91;5034348;28;20669;-82
2022/10/21 04:31:06;;;;;;;16.30;3.55;;;;;;;-145.69;100.00;52501.81;5034797;28;20204;-81
2022/10/21 04:33:33;;;;;;;19.67;3.90;;;;;;;-145.69;100.00;52484.00;5034536;28;20205;-82
2022/10/21 04:35:59;;;;;;;14.93;4.38;;;;;;;-145.69;100.00;52472.13;5034284;28;20283;-82
2022/10/21 04:38:27;;;;;;;11.73;3.63;;;;;;;-145.69;100.00;52497.84;5034693;28;20202;-82
2022/10/21 04:40:57;;;;;;;9.80;3.60;;;;;;;-145.69;100.00;52480.03;5034617;28;20556;-82
2022/10/21 04:43:24;;;;;;;13.32;3.63;;;;;;;-145.69;100.00;52464.19;5034493;28;20196;-82
2022/10/21 04:45:51;;;;;;;11.57;3.47;;;;;;;-145.69;100.00;52495.88;5034362;28;20540;-82
2022/10/21 04:48:20;;;;;;;9.65;3.85;;;;;;;-145.69;100.00;52495.88;5034219;28;20571;-82
2022/10/21 04:50:48;;;;;;;11.50;3.25;;;;;;;-145.69;100.00;52533.50;5034105;28;20199;-81
2022/10/21 04:53:15;;;;;;;16.33;3.55;;;;;;;-145.69;100.00;52484.00;5033566;28;20219;-81
2022/10/21 04:55:41;;;;;;;17.33;4.30;;;;;;;-145.69;100.00;52511.72;5034051;28;20725;-82
2022/10/21 04:58:10;;;;;;;17.05;3.55;;;;;;;-145.69;100.00;52484.00;5034026;28;20201;-81
2022/10/21 05:00:37;;;;;;;10.70;3.67;;;;;;;-145.69;100.00;52476.06;5016136;28;20228;-82
2022/10/21 05:03:04;;;;;;;20.25;4.40;;;;;;;-145.69;100.00;52507.75;5033776;28;20204;-81
2022/10/21 05:05:33;;;;;;;18.05;4.22;;;;;;;-145.69;100.00;52482.00;5033818;28;20199;-82
2022/10/21 05:08:02;;;;;;;22.92;4.07;;;;;;;-145.69;100.00;52535.47;5033266;28;20204;-82
2022/10/21 05:10:29;;;;;;;13.02;4.20;;;;;;;-145.69;100.00;52515.69;5034011;28;20208;-81
2022/10/21 05:12:58;;;;;;;13.57;3.53;;;;;;;-145.69;100.00;52517.66;5033862;28;20247;-82
2022/10/21 05:15:24;;;;;;;13.43;4.38;;;;;;;-145.69;100.00;52523.59;5033762;28;20608;-82
2022/10/21 05:17:51;;;;;;;11.63;4.25;;;;;;;-145.69;100.00;52537.47;5033429;28;20200;-81
2022/10/21 05:20:21;;;;;;;10.00;4.13;;;;;;;-145.69;100.00;52519.63;5032901;28;20224;-81
2022/10/21 05:22:50;;;;;;;15.48;4.07;;;;;;;-145.69;100.00;52517.66;5033720;28;20230;-82
2022/10/21 05:25:17;;;;;;;14.70;3.42;;;;;;;-145.69;100.00;52505.78;5033336;28;20227;-82
2022/10/21 05:27:44;;;;;;;12.43;3.80;;;;;;;-145.69;100.00;52535.47;5033293;28;20196;-81
2022/10/21 05:30:11;;;;;;;21.38;5.13;;;;;;;-145.69;100.00;52503.81;5033192;28;20211;-81
2022/10/21 05:32:38;;;;;;;13.27;4.63;;;;;;;-145.69;100.00;52531.53;5033648;28;20211;-81
2022/10/21 05:35:05;;;;;;;15.98;4.72;;;;;;;-145.69;100.00;52515.69;5033551;28;20202;-81
2022/10/21 05:37:31;;;;;;;14.65;4.50;;;;;;;-145.69;100.00;52521.63;5033332;28;20211;-81
2022/10/21 05:40:03;;;;;;;13.40;3.80;;;;;;;-145.69;100.00;52539.44;5033449;28;20299;-81
2022/10/21 05:42:32;;;;;;;11.63;4.00;;;;;;;-145.69;100.00;52547.38;5033276;28;20322;-80
2022/10/21 05:44:59;;;;;;;14.85;4.13;;;;;;;-145.69;100.00;52509.75;5033193;28;20200;-81
2022/10/21 05:47:30;;;;;;;13.90;4.68;;;;;;;-145.69;100.00;52525.59;5033381;28;20200;-81
2022/10/21 05:49:56;;;;;;;13.82;4.00;;;;;;;-145.69;100.00;52489.94;5033352;28;20223;-81
2022/10/21 05:52:23;;;;;;;9.73;3.45;;;;;;;-145.69;100.00;52531.53;5032986;28;20658;-81
2022/10/21 05:54:49;;;;;;;13.43;4.15;;;;;;;-145.69;100.00;52555.28;5033024;28;20196;-81
2022/10/21 05:57:17;;;;;;;11.45;3.92;;;;;;;-145.69;100.00;52527.56;5032845;28;20199;-81
2022/10/21 05:59:43;;;;;;;12.75;4.15;;;;;;;-145.69;100.00;52529.53;5033279;28;20213;-82
2022/10/21 06:02:10;;;;;;;15.32;3.60;;;;;;;-145.69;100.00;52545.38;5033161;28;20232;-82
2022/10/21 06:04:37;;;;;;;12.63;4.50;;;;;;;-145.69;100.00;52543.41;5033311;28;20558;-81
2022/10/21 06:07:03;;;;;;;16.45;3.50;;;;;;;-145.69;100.00;52507.75;5032984;28;20208;-81
2022/10/21 06:09:30;;;;;;;20.73;4.32;;;;;;;-145.69;100.00;52511.72;5032882;28;20196;-81
2022/10/21 06:11:56;;;;;;;14.10;3.90;;;;;;;-145.69;100.00;52535.47;5032635;28;20287;-81
2022/10/21 06:14:25;;;;;;;12.07;4.82;;;;;;;-145.69;100.00;52549.34;5032779;28;20610;-82
2022/10/21 06:16:51;;;;;;;11.73;3.97;;;;;;;-145.69;100.00;52539.44;5032824;28;20200;-81
2022/10/21 06:19:18;;;;;;;15.60;3.85;;;;;;;-145.69;100.00;52503.81;5032429;28;20243;-82
2022/10/21 06:21:46;;;;;;;12.00;4.07;;;;;;;-145.69;100.00;52523.59;5032344;28;20227;-81
2022/10/21 06:24:15;;;;;;;13.50;3.97;;;;;;;-145.69;100.00;52511.72;5032701;28;20238;-82
2022/10/21 06:26:42;;;;;;;10.82;4.22;;;;;;;-145.69;100.00;52547.38;5032391;28;20203;-81
2022/10/21 06:29:09;;;;;;;42.85;4.80;;;;;;;-145.69;100.00;52537.47;5032904;28;20200;-81
2022/10/21 06:31:37;;;;;;;15.20;4.20;;;;;;;-145.69;100.00;52537.47;5035196;28;20235;-81
2022/10/21 06:34:03;;;;;;;12.02;4.35;;;;;;;-145.69;100.00;52559.25;5036880;28;20207;-81
2022/10/21 06:36:30;;;;;;;11.15;4.10;;;;;;;-145.69;100.00;52519.63;5036764;28;20229;-81
2022/10/21 06:38:56;;;;;;;10.35;4.15;;;;;;;-145.69;100.00;52551.31;5036436;28;20210;-81
2022/10/21 06:41:23;;;;;;;15.70;4.03;;;;;;;-145.69;100.00;52563.22;5036792;28;20235;-81
2022/10/21 06:43:55;;;;;;;14.75;4.80;;;;;;;-145.69;100.00;52521.63;5043549;28;20680;-81
2022/10/21 06:46:21;;;;;;;9.75;4.30;;;;;;;-145.69;100.00;52513.69;5046792;28;20196;-81
2022/10/21 06:48:49;;;;;;;16.27;4.90;;;;;;;-145.69;100.00;52527.56;5038647;28;20227;-81
2022/10/21 06:51:17;;;;;;;18.02;4.57;;;;;;;-145.69;100.00;52519.63;5036424;28;20200;-81
2022/10/21 06:53:44;;;;;;;12.52;4.35;;;;;;;-145.69;100.00;52549.34;5036601;28;20206;-81
2022/10/21 06:56:12;;;;;;;17.38;4.55;;;;;;;-145.69;100.00;52563.22;5036580;28;20200;-81
2022/10/21 06:58:42;;;;;;;13.73;4.35;;;;;;;-145.69;100.00;52529.53;5036424;28;20206;-81
2022/10/21 07:01:14;;;;;;;12.02;4.45;;;;;;;-145.69;100.00;52545.38;5036565;28;20219;-81
2022/10/21 07:03:40;;;;;;;8.73;3.55;;;;;;;-145.69;100.00;52519.63;5036242;28;20287;-80
2022/10/21 07:06:08;;;;;;;12.45;4.07;;;;;;;-145.69;100.00;52493.91;5054583;28;20290;-82
2022/10/21 07:08:36;;;;;;;14.85;4.38;;;;;;;-145.69;100.00;52549.34;5055563;28;20196;-81
2022/10/21 07:11:03;;;;;;;10.60;3.90;;;;;;;-145.69;100.00;52553.31;5055496;28;20207;-81
2022/10/21 07:13:30;;;;;;;13.73;4.28;;;;;;;-145.69;100.00;52531.53;5055973;28;20200;-81
2022/10/21 07:16:00;;;;;;;13.48;4.50;;;;;;;-145.69;100.00;52551.31;5055925;28;20202;-82
2022/10/21 07:18:27;;;;;;;13.30;4.20;;;;;;;-145.69;100.00;52539.44;5048296;28;20232;-81
2022/10/21 07:20:54;;;;;;;9.98;2.80;;;;;;;-145.69;100.00;52535.47;5035950;28;20282;-81
2022/10/21 07:23:22;;;;;;;10.45;2.22;;;;;;;-145.69;100.00;52529.53;5054998;28;20202;-81
2022/10/21 07:25:48;;;;;;;5.18;2.08;;;;;;;-145.69;100.00;52543.41;5049789;28;20200;-81
2022/10/21 07:28:15;;;;;;;9.50;2.10;;;;;;;-145.69;100.00;52515.69;5035434;28;20394;-81
2022/10/21 07:30:44;;;;;;;9.52;2.10;;;;;;;-145.69;100.00;52519.63;5035525;28;20200;-81
2022/10/21 07:33:11;;;;;;;4.38;1.60;;;;;;;-145.69;100.00;52531.53;5040520;28;20278;-81
2022/10/21 07:35:38;;;;;;;6.68;1.70;;;;;;;-145.69;100.00;52525.59;5055785;28;20226;-81
2022/10/21 07:38:04;;;;;;;4.28;2.10;;;;;;;-145.69;100.00;52517.66;5055662;28;20196;-80
2022/10/21 07:40:40;;;;;;;8.15;2.00;;;;;;;-145.69;100.00;52547.38;5050992;28;20207;-80
2022/10/21 07:43:06;;;;;;;6.20;2.00;;;;;;;-145.69;100.00;52495.88;5055460;28;20258;-81
2022/10/21 07:45:33;;;;;;;9.02;2.70;;;;;;;-145.69;100.00;52533.50;5054911;28;20230;-80
2022/10/21 07:48:00;;;;;;;8.82;2.58;;;;;;;-145.69;100.00;52499.84;5035593;28;20610;-81
2022/10/21 07:50:27;;;;;;;10.48;2.45;;;;;;;-145.69;100.00;52523.59;5035366;28;20204;-81
2022/10/21 07:52:56;;;;;;;7.82;2.50;;;;;;;-145.69;100.00;52521.63;5034266;28;20899;-81
2022/10/21 07:55:23;;;;;;;8.48;2.40;;;;;;;-145.69;100.00;52503.81;5035327;28;20237;-81
2022/10/21 07:57:50;;;;;;;5.78;2.08;;;;;;;-145.69;100.00;52501.81;5035275;28;20203;-80
2022/10/21 08:00:17;;;;;;;6.68;1.85;;;;;;;-145.69;100.00;52527.56;5035145;28;20207;-81
2022/10/21 08:02:43;;;;;;;4.88;1.85;;;;;;;-145.69;100.00;52541.44;5035258;28;20239;-81
2022/10/21 08:05:10;;;;;;;4.75;1.63;;;;;;;-145.69;100.00;52511.72;5039480;28;20203;-81
2022/10/21 08:07:36;;;;;;;8.15;1.75;;;;;;;-145.69;100.00;52507.75;5035180;28;20291;-81
2022/10/21 08:10:04;;;;;;;13.07;2.45;;;;;;;-145.69;100.00;52515.69;5035003;28;20211;-81
2022/10/21 08:12:30;;;;;;;11.50;2.28;;;;;;;-145.69;100.00;52511.72;5049391;28;20195;-81
2022/10/21 08:15:01;;;;;;;9.82;2.08;;;;;;;-145.69;100.00;52476.06;5055332;28;20207;-81
2022/10/21 08:17:27;;;;;;;4.50;2.33;;;;;;;-145.69;100.00;52513.69;5055518;28;20203;-81
2022/10/21 08:19:55;;;;;;;8.15;2.03;;;;;;;-145.69;100.00;52507.75;5054832;28;20235;-81
2022/10/21 08:22:22;;;;;;;7.78;2.47;;;;;;;-145.69;100.00;52487.97;5054909;28;20686;-81
2022/10/21 08:24:48;;;;;;;6.53;2.10;;;;;;;-145.69;100.00;52487.97;5055120;28;20223;-81
2022/10/21 08:27:15;;;;;;;8.48;2.05;;;;;;;-145.69;100.00;52505.78;5054863;28;20195;-82
2022/10/21 08:29:43;;;;;;;7.88;2.08;;;;;;;-145.69;100.00;52482.00;5042692;28;20283;-81
2022/10/21 08:32:10;;;;;;;8.15;2.70;;;;;;;-145.69;100.00;52499.84;5035929;28;20777;-81
2022/10/21 08:34:37;;;;;;;7.38;2.17;;;;;;;-145.69;100.00;52470.13;5037025;28;20204;-80
2022/10/21 08:37:03;;;;;;;9.63;2.20;;;;;;;-145.69;100.00;52523.59;5036332;28;20204;-81
2022/10/21 08:39:30;;;;;;;8.77;2.65;;;;;;;-145.69;100.00;52495.88;5034660;28;20200;-80
2022/10/21 08:42:10;;;;;;;10.80;2.88;;;;;;;-145.69;100.00;52485.97;5037034;28;20219;-81
2022/10/21 08:44:42;;;;;;;10.07;2.22;;;;;;;-145.69;100.00;52478.06;5033297;28;20459;-81
2022/10/21 08:47:20;;;;;;;5.03;2.60;;;;;;;-145.69;100.00;52485.97;5034490;28;20208;-82
2022/10/21 08:49:55;;;;;;;7.57;2.35;;;;;;;-145.69;100.00;52480.03;5034387;28;20207;-79
2022/10/21 08:52:31;;;;;;;9.93;2.53;;;;;;;-145.69;100.00;52487.97;5053899;28;20195;-81
2022/10/21 08:55:00;;;;;;;12.02;2.92;;;;;;;-145.69;100.00;52499.84;5053379;28;20211;-80
2022/10/21 08:57:28;;;;;;;12.57;3.33;;;;;;;-145.69;100.00;52503.81;5052638;28;20566;-79
2022/10/21 08:59:55;;;;;;;9.73;2.75;;;;;;;-145.69;100.00;52503.81;5034420;28;20203;-81
2022/10/21 09:02:32;;;;;;;9.48;4.00;;;;;;;-145.69;100.00;52493.91;5047877;28;20227;-81
2022/10/21 09:05:18;;;;;;;14.10;3.80;;;;;;;-145.69;100.00;52523.59;5054192;28;20215;-82
2022/10/21 09:07:52;;;;;;;9.27;3.25;;;;;;;-145.69;100.00;52513.69;5050236;28;20204;-80
2022/10/21 09:10:30;;;;;;;8.88;2.63;;;;;;;-145.69;100.00;52484.00;5053101;28;20206;-81
2022/10/21 09:13:07;;;;;;;6.40;2.50;;;;;;;-145.69;100.00;52527.56;5033087;28;20200;-80
2022/10/21 09:15:40;;;;;;;9.82;2.70;;;;;;;-145.69;100.00;52517.66;5033969;28;20206;-80
2022/10/21 09:18:31;;;;;;;6.72;2.38;;;;;;;-145.69;100.00;52553.31;5033349;28;20555;-80
2022/10/21 09:21:06;;;;;;;8.23;1.85;;;;;;;-145.69;100.00;52539.44;5033430;28;20196;-81
2022/10/21 09:23:53;;;;;;;4.70;1.90;;;;;;;-145.69;100.00;52521.63;5033133;28;20571;-80
2022/10/21 09:26:35;;;;;;;3.67;1.70;;;;;;;-145.69;100.00;52529.53;5038924;28;20195;-81
2022/10/21 09:29:13;;;;;;;2.65;1.55;;;;;;;-145.69;100.00;52513.69;5053168;28;20214;-81
2022/10/21 09:31:40;;;;;;;3.70;1.55;;;;;;;-145.69;100.00;52513.69;5031760;28;20677;-82
2022/10/21 09:34:19;;;;;;;4.90;1.52;;;;;;;-145.69;100.00;52487.97;5034195;28;20192;-81
2022/10/21 09:36:47;;;;;;;4.18;1.50;;;;;;;-145.69;100.00;52503.81;5030475;28;20200;-81
2022/10/21 09:39:18;;;;;;;4.53;1.02;;;;;;;-145.69;100.00;52503.81;5031407;28;20211;-81
2022/10/21 09:41:49;;;;;;;1.98;1.27;;;;;;;-145.69;100.00;52515.69;5033155;28;20200;-81
2022/10/21 09:44:19;;;;;;;2.55;1.40;;;;;;;-145.69;100.00;52493.91;5051651;28;20191;-80
2022/10/21 09:46:46;;;;;;;2.65;1.30;;;;;;;-145.69;100.00;52525.59;5035225;28;20639;-82
2022/10/21 09:49:23;;;;;;;5.22;1.30;;;;;;;-145.69;100.00;52497.84;5042133;28;20204;-81
2022/10/21 09:51:50;;;;;;;1.85;0.80;;;;;;;-145.69;100.00;52519.63;5037042;28;20198;-81
2022/10/21 09:54:19;;;;;;;3.88;1.20;;;;;;;-145.69;100.00;52476.06;5050958;28;20462;-81
2022/10/21 09:56:50;;;;;;;1.63;1.15;;;;;;;-145.69;100.00;52495.88;5039987;28;20559;-81
2022/10/21 09:59:20;;;;;;;5.07;1.05;;;;;;;-145.69;100.00;52476.06;5032903;28;20643;-82
2022/10/21 10:01:48;;;;;;;3.88;0.90;;;;;;;-145.69;100.00;52476.06;5032857;28;20647;-82
2022/10/21 10:04:23;;;;;;;4.18;1.50;;;;;;;-145.69;100.00;52478.06;5032762;28;20200;-81
2022/10/21 10:06:50;;;;;;;3.28;0.90;;;;;;;-145.69;100.00;52472.13;5032831;28;20203;-81
2022/10/21 10:09:26;;;;;;;1.42;0.88;;;;;;;-145.69;100.00;52513.69;5032565;28;20200;-81
2022/10/21 10:11:55;;;;;;;1.83;0.88;;;;;;;-145.69;100.00;52476.06;5032989;28;20650;-82
2022/10/21 10:14:25;;;;;;;2.85;1.15;;;;;;;-145.69;100.00;52487.97;5033066;28;20200;-81
2022/10/21 10:16:52;;;;;;;5.53;1.40;;;;;;;-145.69;100.00;52499.84;5042467;28;20203;-81
2022/10/21 10:19:22;;;;;;;1.88;0.90;;;;;;;-145.69;100.00;52476.06;5051734;28;20577;-81
2022/10/21 10:22:09;;;;;;;3.03;1.67;;;;;;;-145.69;100.00;52480.03;5052358;28;20752;-81
2022/10/21 10:24:39;;;;;;;3.75;1.20;;;;;;;-145.69;100.00;52458.25;5052666;28;20210;-81
2022/10/21 10:27:06;;;;;;;2.35;0.98;;;;;;;-145.69;100.00;52493.91;5052783;28;20676;-81
2022/10/21 10:29:34;;;;;;;2.15;0.90;;;;;;;-145.69;100.00;52485.97;5052365;28;20621;-81
2022/10/21 10:32:02;;;;;;;3.83;1.05;;;;;;;-145.69;100.00;52487.97;5052586;28;20206;-81
2022/10/21 10:34:34;;;;;;;3.13;1.00;;;;;;;-145.69;100.00;52499.84;5041542;28;20200;-81
2022/10/21 10:37:06;;;;;;;2.10;0.90;;;;;;;-145.69;100.00;52511.72;5032834;28;20299;-82
2022/10/21 10:39:35;;;;;;;3.13;1.00;;;;;;;-145.69;100.00;52507.75;5032842;28;20208;-81
2022/10/21 10:42:03;;;;;;;6.00;0.90;;;;;;;-145.69;100.00;52468.16;5032571;28;20203;-81
2022/10/21 10:44:35;;;;;;;6.70;1.30;;;;;;;-145.69;100.00;52476.06;5032471;28;20659;-80
2022/10/21 10:47:04;;;;;;;2.65;1.42;;;;;;;-145.69;100.00;52482.00;5032811;28;20223;-81
2022/10/21 10:49:38;;;;;;;3.63;1.35;;;;;;;-145.69;100.00;52509.75;5049400;28;20207;-82
2022/10/21 10:52:14;;;;;;;1.70;1.20;;;;;;;-145.69;100.00;52507.75;5052710;28;20678;-82
2022/10/21 10:54:41;;;;;;;3.03;1.08;;;;;;;-145.69;100.00;52470.13;5052799;28;20223;-80
2022/10/21 10:57:13;;;;;;;6.15;1.42;;;;;;;-145.69;100.00;52470.13;5052413;28;20219;-81
2022/10/21 10:59:42;;;;;;;2.10;1.23;;;;;;;-145.69;100.00;52489.94;5053082;28;20204;-82
2022/10/21 11:02:22;;;;;;;2.10;0.90;;;;;;;-145.69;100.00;52484.00;5052621;28;20562;-82
2022/10/21 11:05:13;;;;;;;6.22;1.08;;;;;;;-145.69;100.00;52480.03;5039956;28;20201;-82
2022/10/21 11:07:45;;;;;;;3.83;1.15;;;;;;;-145.69;100.00;52487.97;5032567;28;20202;-82
2022/10/21 11:10:29;;;;;;;3.60;1.05;;;;;;;-145.69;100.00;52499.84;5032766;28;20388;-82
2022/10/21 11:12:56;;;;;;;7.28;0.90;;;;;;;-145.69;100.00;52476.06;5051171;28;20201;-81
2022/10/21 11:15:32;;;;;;;2.28;0.85;;;;;;;-145.69;100.00;52476.06;5040750;28;20241;-81
2022/10/21 11:18:02;;;;;;;4.05;0.88;;;;;;;-145.69;100.00;52503.81;5034813;28;20655;-80